DTTJ Airport Information

Runway Information
Runway 09 Length 10171 ft width 148 ft
Elevation 9 ft Threshold 0 ft Heading 88
Runway 27 Length 10171 ft Width 148 ft
Elevation 18 ft Threshold 0 ft Heading 268
Airport Frequencies
Type APP Name DJERBA APP Frequency 120.3 MHZ
Type TWR Name DJERBA TWR Frequency 118.15 MHZ
Airport Navaids
Type VOR-DME Name Djerba Frequency 112200 KHZ
Airport Weather Information & NOTAM
ADDS - METARS form results

(2221 UTC 22 January 2020)
Data provider http://aviationweather.gov/metar/data/
 
METAR text: DTTJ 222200Z 11009KT CAVOK 15/11 Q1025 NOSIG
Conditions at: DTTJ (DJERBA MELLITA , TN) observed 2200 UTC 22 January 2020
Temperature: 15.0°C (59°F)
Dewpoint: 11.0°C (52°F) [RH = 77%]
Pressure (altimeter): 30.27 inches Hg (1025.0 mb)
Winds: from the ESE (110 degrees) at 10 MPH (9 knots; 4.6 m/s)
Visibility: 6 or more miles (10+ km)
Ceiling: ceiling and visibility are OK
Clouds: unknown
Weather: no significant weather observed at this time

METAR text: DTTJ 222130Z 11010KT CAVOK 15/11 Q1025 NOSIG
Conditions at: DTTJ (DJERBA MELLITA , TN) observed 2130 UTC 22 January 2020
Temperature: 15.0°C (59°F)
Dewpoint: 11.0°C (52°F) [RH = 77%]
Pressure (altimeter): 30.27 inches Hg (1025.0 mb)
Winds: from the ESE (110 degrees) at 12 MPH (10 knots; 5.1 m/s)
Visibility: 6 or more miles (10+ km)
Ceiling: ceiling and visibility are OK
Clouds: unknown
Weather: no significant weather observed at this time

Forecast for: DTTJ (DJERBA MELLITA , TN)
Text: TAF DTTJ 221700Z 2218/2318 10011KT CAVOK
Forecast period: 1800 UTC 22 January 2020 to 0600 UTC 23 January 2020
Forecast type: FROM: standard forecast or significant change
Winds: from the E (100 degrees) at 13 MPH (11 knots; 5.7 m/s)
Visibility: 6 or more miles 10+ km)
Ceiling: unknown
Clouds: missing
Weather: NSW  (no significant weather)
Text: BECMG 2306/2308 16007KT
Forecast period: 0600 to 1800 UTC 23 January 2020
Forecast type: BECOMING: Conditions expected to become as follows by 0800 UTC 23 January 2020
Winds: from the SSE (160 degrees) at 8 MPH (7 knots; 3.6 m/s)
Visibility: 6 or more miles 10+ km)
Ceiling: unknown
Clouds: missing
Weather: NSW  (no significant weather)